createdAt,value
2019-02-22T00:00:34.264Z,7.9
2019-02-22T00:01:41.459Z,7.9
2019-02-22T00:02:48.388Z,7.9
2019-02-22T00:03:55.642Z,8
2019-02-22T00:05:02.843Z,8
2019-02-22T00:06:10.039Z,8
2019-02-22T00:07:17.236Z,8
2019-02-22T00:08:24.161Z,8
2019-02-22T00:09:31.360Z,8
2019-02-22T00:10:38.565Z,8
2019-02-22T00:11:45.760Z,8
2019-02-22T00:12:52.960Z,8
2019-02-22T00:14:00.161Z,8.1
2019-02-22T00:15:07.093Z,8.1
2019-02-22T00:16:14.295Z,8.1
2019-02-22T00:17:21.226Z,8.1
2019-02-22T00:18:28.430Z,8.1
2019-02-22T00:19:35.622Z,8.1
2019-02-22T00:20:42.273Z,8.1
2019-02-22T00:21:49.470Z,8.1
2019-02-22T00:22:56.396Z,8.2
2019-02-22T00:24:03.645Z,8.2
2019-02-22T00:25:10.841Z,8.2
2019-02-22T00:26:18.046Z,8.2
2019-02-22T00:27:25.246Z,8.2
2019-02-22T00:28:32.441Z,8.1
2019-02-22T00:29:39.639Z,8.1
2019-02-22T00:30:46.560Z,8.1
2019-02-22T00:31:53.758Z,8.2
2019-02-22T00:33:00.684Z,8.2
2019-02-22T00:34:07.973Z,8.2
2019-02-22T00:35:15.331Z,8.2
2019-02-22T00:36:22.763Z,8.2
2019-02-22T00:37:30.080Z,8.1
2019-02-22T00:38:37.381Z,8.2
2019-02-22T00:39:44.319Z,8.2
2019-02-22T00:40:51.516Z,8.3
2019-02-22T00:41:58.717Z,8.3
2019-02-22T00:43:05.915Z,8.4
2019-02-22T00:44:13.111Z,8.4
2019-02-22T00:45:20.313Z,8.4
2019-02-22T00:46:27.241Z,8.4
2019-02-22T00:47:34.512Z,8.3
2019-02-22T00:48:41.430Z,8.3
2019-02-22T00:49:48.358Z,8.4
2019-02-22T00:50:55.294Z,8.4
2019-02-22T00:52:02.499Z,8.4
2019-02-22T00:53:09.697Z,8.3
2019-02-22T00:54:16.894Z,8.3
2019-02-22T00:55:24.149Z,8.4
2019-02-22T00:56:31.358Z,8.4
2019-02-22T00:57:38.553Z,8.4
2019-02-22T00:58:45.758Z,8.4
2019-02-22T00:59:52.962Z,8.4
2019-02-22T01:01:00.371Z,8.4
2019-02-22T01:02:07.562Z,8.4
2019-02-22T01:03:14.489Z,8.4
2019-02-22T01:04:21.684Z,8.4
2019-02-22T01:05:28.883Z,8.4
2019-02-22T01:06:35.814Z,8.4
2019-02-22T01:07:43.009Z,8.4
2019-02-22T01:08:50.211Z,8.4
2019-02-22T01:09:57.417Z,8.4
2019-02-22T01:11:04.347Z,8.4
2019-02-22T01:12:11.549Z,8.4
2019-02-22T01:13:18.802Z,8.4
2019-02-22T01:14:26.006Z,8.4
2019-02-22T01:15:33.213Z,8.4
2019-02-22T01:16:40.402Z,8.4
2019-02-22T01:17:47.602Z,8.4
2019-02-22T01:18:54.791Z,8.4
2019-02-22T01:20:01.556Z,8.4
2019-02-22T01:21:08.766Z,8.4
2019-02-22T01:22:15.963Z,8.4
2019-02-22T01:23:23.158Z,8.4
2019-02-22T01:24:30.357Z,8.4
2019-02-22T01:25:37.558Z,8.4
2019-02-22T01:26:44.756Z,8.4
2019-02-22T01:27:51.954Z,8.5
2019-02-22T01:28:59.161Z,8.4
2019-02-22T01:30:06.364Z,8.5
2019-02-22T01:31:13.624Z,8.5
2019-02-22T01:32:20.557Z,8.5
2019-02-22T01:33:27.756Z,8.5
2019-02-22T01:34:34.700Z,8.5
2019-02-22T01:35:41.898Z,8.6
2019-02-22T01:36:49.096Z,8.5
2019-02-22T01:37:56.300Z,8.5
2019-02-22T01:39:03.502Z,8.5
2019-02-22T01:40:10.697Z,8.5
2019-02-22T01:41:17.900Z,8.5
2019-02-22T01:42:24.544Z,8.5
2019-02-22T01:43:34.010Z,8.6
2019-02-22T01:44:41.210Z,8.5
2019-02-22T01:45:48.156Z,8.6
2019-02-22T01:46:55.353Z,8.5
2019-02-22T01:48:02.562Z,8.5
2019-02-22T01:49:09.750Z,8.5
2019-02-22T01:50:31.330Z,8.6
2019-02-22T01:51:38.600Z,8.6
2019-02-22T01:52:45.793Z,8.5
2019-02-22T01:53:54.623Z,8.5
2019-02-22T01:55:01.584Z,8.5
2019-02-22T01:56:08.780Z,8.6
2019-02-22T01:57:15.707Z,8.6
2019-02-22T01:58:22.906Z,8.6
2019-02-22T01:59:30.108Z,8.6
2019-02-22T02:00:40.101Z,8.6
2019-02-22T02:01:47.301Z,8.6
2019-02-22T02:02:54.498Z,8.6
2019-02-22T02:04:01.696Z,8.5
2019-02-22T02:05:08.900Z,8.5
2019-02-22T02:06:15.824Z,8.5
2019-02-22T02:07:23.062Z,8.5
2019-02-22T02:08:30.245Z,8.5
2019-02-22T02:09:37.389Z,8.5
2019-02-22T02:10:54.648Z,8.4
2019-02-22T02:12:02.623Z,8.4
2019-02-22T02:13:09.821Z,8.4
2019-02-22T02:14:17.130Z,8.4
2019-02-22T02:15:24.049Z,8.4
2019-02-22T02:16:30.981Z,8.4
2019-02-22T02:17:37.900Z,8.4
2019-02-22T02:18:45.099Z,8.4
2019-02-22T02:19:52.311Z,8.4
2019-02-22T02:20:59.506Z,8.4
2019-02-22T02:22:06.700Z,8.4
2019-02-22T02:23:13.896Z,8.3
2019-02-22T02:24:20.826Z,8.3
2019-02-22T02:25:27.474Z,8.3
2019-02-22T02:26:34.405Z,8.3
2019-02-22T02:27:41.607Z,8.3
2019-02-22T02:28:48.806Z,8.3
2019-02-22T02:29:58.208Z,8.3
2019-02-22T02:31:05.134Z,8.3
2019-02-22T02:32:12.411Z,8.4
2019-02-22T02:33:19.621Z,8.4
2019-02-22T02:34:26.821Z,8.5
2019-02-22T02:35:33.585Z,8.5
2019-02-22T02:36:40.510Z,8.5
2019-02-22T02:37:47.708Z,8.5
2019-02-22T02:38:54.914Z,8.5
2019-02-22T02:40:02.117Z,8.4
2019-02-22T02:41:12.062Z,8.4
2019-02-22T02:42:19.346Z,8.4
2019-02-22T02:43:26.569Z,8.4
2019-02-22T02:44:33.764Z,8.4
2019-02-22T02:45:40.965Z,8.4
2019-02-22T02:46:48.160Z,8.3
2019-02-22T02:47:55.362Z,8.3
2019-02-22T02:49:02.561Z,8.3
2019-02-22T02:50:09.491Z,8.3
2019-02-22T02:51:16.691Z,8.3
2019-02-22T02:52:23.884Z,8.3
2019-02-22T02:53:31.078Z,8.3
2019-02-22T02:54:38.281Z,8.3
2019-02-22T02:55:45.603Z,8.4
2019-02-22T02:56:52.847Z,8.4
2019-02-22T02:58:00.053Z,8.4
2019-02-22T02:59:07.247Z,8.4
2019-02-22T03:00:14.502Z,8.4
2019-02-22T03:01:21.697Z,8.4
2019-02-22T03:02:28.898Z,8.4
2019-02-22T03:03:36.111Z,8.5
2019-02-22T03:04:43.307Z,8.5
2019-02-22T03:05:50.515Z,8.5
2019-02-22T03:06:57.722Z,8.5
2019-02-22T03:08:04.917Z,8.5
2019-02-22T03:09:12.119Z,8.5
2019-02-22T03:10:19.344Z,8.5
2019-02-22T03:11:26.549Z,8.5
2019-02-22T03:12:33.749Z,8.5
2019-02-22T03:13:40.949Z,8.4
2019-02-22T03:14:47.925Z,8.4
2019-02-22T03:15:54.846Z,8.4
2019-02-22T03:17:01.811Z,8.4
2019-02-22T03:18:08.997Z,8.4
2019-02-22T03:19:15.929Z,8.4
2019-02-22T03:20:23.125Z,8.4
2019-02-22T03:21:30.340Z,8.4
2019-02-22T03:22:37.534Z,8.4
2019-02-22T03:23:44.736Z,8.4
2019-02-22T03:24:54.132Z,8.4
2019-02-22T03:26:01.342Z,8.4
2019-02-22T03:27:08.591Z,8.4
2019-02-22T03:28:15.813Z,8.4
2019-02-22T03:29:23.052Z,8.5
2019-02-22T03:30:30.256Z,8.5
2019-02-22T03:31:37.455Z,8.5
2019-02-22T03:32:44.382Z,8.5
2019-02-22T03:33:51.619Z,8.4
2019-02-22T03:34:58.859Z,8.4
2019-02-22T03:36:06.058Z,8.4
2019-02-22T03:37:12.976Z,8.4
2019-02-22T03:38:20.171Z,8.4
2019-02-22T03:39:27.118Z,8.4
2019-02-22T03:40:34.321Z,8.4
2019-02-22T03:41:41.518Z,8.4
2019-02-22T03:42:48.717Z,8.3
2019-02-22T03:43:55.926Z,8.3
2019-02-22T03:45:02.839Z,8.3
2019-02-22T03:46:10.036Z,8.3
2019-02-22T03:47:16.955Z,8.3
2019-02-22T03:48:24.156Z,8.3
2019-02-22T03:49:31.367Z,8.3
2019-02-22T03:50:38.563Z,8.3
2019-02-22T03:51:45.488Z,8.3
2019-02-22T03:52:52.687Z,8.3
2019-02-22T03:53:59.886Z,8.3
2019-02-22T03:55:06.823Z,8.3
2019-02-22T03:56:14.046Z,8.3
2019-02-22T03:57:21.235Z,8.3
2019-02-22T03:58:28.436Z,8.3
2019-02-22T03:59:35.358Z,8.3
2019-02-22T04:00:42.554Z,8.3
2019-02-22T04:01:49.475Z,8.3
2019-02-22T04:02:56.679Z,8.3
2019-02-22T04:04:03.881Z,8.3
2019-02-22T04:05:11.084Z,8.3
2019-02-22T04:06:18.066Z,8.3
2019-02-22T04:07:25.246Z,8.3
2019-02-22T04:08:32.448Z,8.2
2019-02-22T04:09:39.374Z,8.2
2019-02-22T04:10:46.297Z,8.2
2019-02-22T04:11:53.222Z,8.2
2019-02-22T04:13:00.441Z,8.2
2019-02-22T04:14:07.647Z,8.2
2019-02-22T04:15:14.571Z,8.2
2019-02-22T04:16:21.778Z,8.2
2019-02-22T04:17:28.976Z,8.2
2019-02-22T04:18:36.176Z,8.2
2019-02-22T04:19:43.375Z,8.2
2019-02-22T04:20:50.576Z,8.2
2019-02-22T04:21:57.779Z,8.1
2019-02-22T04:23:04.703Z,8.1
2019-02-22T04:24:11.907Z,8.1
2019-02-22T04:25:18.836Z,8.1
2019-02-22T04:26:26.043Z,8.1
2019-02-22T04:27:33.237Z,8.1
2019-02-22T04:28:40.167Z,8.1
2019-02-22T04:29:47.382Z,8.1
2019-02-22T04:30:54.324Z,8.1
2019-02-22T04:32:01.250Z,8.1
2019-02-22T04:33:08.447Z,8.1
2019-02-22T04:34:15.373Z,8.1
2019-02-22T04:35:22.571Z,8.1
2019-02-22T04:36:29.217Z,8.1
2019-02-22T04:37:36.140Z,8.1
2019-02-22T04:38:43.343Z,8.1
2019-02-22T04:39:50.543Z,8.1
2019-02-22T04:40:57.745Z,8.1
2019-02-22T04:42:04.954Z,8.1
2019-02-22T04:43:12.156Z,8.1
2019-02-22T04:44:19.352Z,8.1
2019-02-22T04:45:26.551Z,8.1
2019-02-22T04:46:33.810Z,8.1
2019-02-22T04:47:41.007Z,8.1
2019-02-22T04:48:48.206Z,8.1
2019-02-22T04:49:55.129Z,8.1
2019-02-22T04:51:02.325Z,8.2
2019-02-22T04:52:09.522Z,8.1
2019-02-22T04:53:16.718Z,8.1
2019-02-22T04:54:23.927Z,8.1
2019-02-22T04:55:31.181Z,8.1
2019-02-22T04:56:38.383Z,8.1
2019-02-22T04:57:45.579Z,8.1
2019-02-22T04:58:52.883Z,8.1
2019-02-22T05:00:00.155Z,8.1
2019-02-22T05:01:07.518Z,8.1
2019-02-22T05:02:14.707Z,8.1
2019-02-22T05:03:21.904Z,8.1
2019-02-22T05:04:29.101Z,8.1
2019-02-22T05:05:36.303Z,8.1
2019-02-22T05:06:43.501Z,8
2019-02-22T05:07:50.700Z,8
2019-02-22T05:08:57.900Z,8
2019-02-22T05:10:05.099Z,8
2019-02-22T05:11:12.291Z,8
2019-02-22T05:12:19.494Z,8
2019-02-22T05:13:26.692Z,8
2019-02-22T05:14:33.905Z,8
2019-02-22T05:15:41.372Z,8
2019-02-22T05:16:48.589Z,8
2019-02-22T05:17:55.788Z,8
2019-02-22T05:19:02.712Z,8
2019-02-22T05:20:09.919Z,8
2019-02-22T05:21:17.116Z,8
2019-02-22T05:22:24.321Z,8
2019-02-22T05:23:31.523Z,8
2019-02-22T05:24:38.469Z,7.9
2019-02-22T05:25:45.664Z,7.9
2019-02-22T05:26:52.863Z,7.9
2019-02-22T05:28:00.064Z,7.9
2019-02-22T05:29:07.257Z,7.9
2019-02-22T05:30:14.454Z,7.9
2019-02-22T05:31:21.382Z,7.9
2019-02-22T05:32:28.579Z,7.9
2019-02-22T05:33:35.507Z,7.9
2019-02-22T05:34:42.734Z,7.8
2019-02-22T05:35:49.935Z,7.9
2019-02-22T05:36:56.864Z,7.9
2019-02-22T05:38:04.078Z,7.9
2019-02-22T05:39:19.744Z,7.8
2019-02-22T05:40:26.940Z,7.9
2019-02-22T05:41:34.136Z,7.9
2019-02-22T05:42:41.061Z,7.9
2019-02-22T05:43:48.259Z,7.8
2019-02-22T05:44:55.456Z,7.8
2019-02-22T05:46:02.385Z,7.8
2019-02-22T05:47:09.308Z,7.8
2019-02-22T05:48:16.245Z,7.8
2019-02-22T05:49:23.445Z,7.8
2019-02-22T05:50:30.644Z,7.8
2019-02-22T05:51:37.846Z,7.8
2019-02-22T05:52:44.779Z,7.7
2019-02-22T05:53:52.005Z,7.7
2019-02-22T05:54:59.197Z,7.7
2019-02-22T05:56:06.572Z,7.7
2019-02-22T05:57:14.840Z,7.7
2019-02-22T05:58:22.039Z,7.7
2019-02-22T05:59:28.966Z,7.7
2019-02-22T06:00:36.167Z,7.7
2019-02-22T06:01:43.379Z,7.7
2019-02-22T06:02:50.579Z,7.7
2019-02-22T06:03:57.779Z,7.7
2019-02-22T06:05:05.153Z,7.7
2019-02-22T06:06:12.344Z,7.7
2019-02-22T06:07:19.545Z,7.7
2019-02-22T06:08:26.758Z,7.7
2019-02-22T06:09:33.953Z,7.6
2019-02-22T06:10:41.149Z,7.6
2019-02-22T06:11:48.386Z,7.6
2019-02-22T06:12:55.611Z,7.6
2019-02-22T06:14:02.531Z,7.6
2019-02-22T06:15:09.467Z,7.6
2019-02-22T06:16:16.662Z,7.5
2019-02-22T06:17:23.863Z,7.5
2019-02-22T06:18:31.069Z,7.5
2019-02-22T06:19:38.000Z,7.5
2019-02-22T06:20:45.205Z,7.4
2019-02-22T06:21:52.130Z,7.5
2019-02-22T06:22:59.347Z,7.5
2019-02-22T06:24:06.552Z,7.5
2019-02-22T06:25:13.747Z,7.5
2019-02-22T06:26:20.680Z,7.4
2019-02-22T06:27:27.605Z,7.4
2019-02-22T06:28:34.803Z,7.4
2019-02-22T06:29:41.742Z,7.4
2019-02-22T06:30:48.941Z,7.4
2019-02-22T06:31:55.865Z,7.4
2019-02-22T06:33:02.827Z,7.4
2019-02-22T06:34:10.020Z,7.3
2019-02-22T06:35:16.938Z,7.3
2019-02-22T06:36:24.202Z,7.3
2019-02-22T06:37:31.402Z,7.3
2019-02-22T06:38:38.599Z,7.3
2019-02-22T06:39:45.893Z,7.4
2019-02-22T06:40:53.085Z,7.4
2019-02-22T06:42:00.279Z,7.4
2019-02-22T06:43:07.477Z,7.4
2019-02-22T06:44:14.673Z,7.4
2019-02-22T06:45:21.877Z,7.4
2019-02-22T06:46:29.085Z,7.4
2019-02-22T06:47:36.009Z,7.4
2019-02-22T06:48:43.207Z,7.4
2019-02-22T06:49:50.406Z,7.4
2019-02-22T06:50:57.599Z,7.4
2019-02-22T06:52:04.800Z,7.4
2019-02-22T06:53:11.725Z,7.4
2019-02-22T06:54:18.654Z,7.4
2019-02-22T06:55:25.851Z,7.5
2019-02-22T06:56:32.783Z,7.6
2019-02-22T06:57:40.008Z,7.7
2019-02-22T06:58:47.505Z,7.7
2019-02-22T06:59:54.715Z,7.7
2019-02-22T07:01:01.652Z,7.8
2019-02-22T07:02:08.843Z,7.8
2019-02-22T07:03:16.048Z,7.8
2019-02-22T07:04:23.243Z,7.9
2019-02-22T07:05:30.452Z,7.9
2019-02-22T07:06:37.749Z,7.9
2019-02-22T07:07:44.673Z,8
2019-02-22T07:08:51.909Z,8
2019-02-22T07:09:59.126Z,8
2019-02-22T07:11:06.451Z,8
2019-02-22T07:12:13.653Z,8.1
2019-02-22T07:13:20.852Z,8.1
2019-02-22T07:14:30.696Z,8.1
2019-02-22T07:15:37.897Z,8.2
2019-02-22T07:16:45.139Z,8.2
2019-02-22T07:17:52.044Z,8.2
2019-02-22T07:18:59.243Z,8.2
2019-02-22T07:20:06.182Z,8.3
2019-02-22T07:21:13.110Z,8.3
2019-02-22T07:22:20.323Z,8.3
2019-02-22T07:23:27.521Z,8.3
2019-02-22T07:24:34.724Z,8.4
2019-02-22T07:25:41.924Z,8.4
2019-02-22T07:26:48.577Z,8.4
2019-02-22T07:27:55.776Z,8.4
2019-02-22T07:29:02.701Z,8.4
2019-02-22T07:30:09.903Z,8.4
2019-02-22T07:31:16.828Z,8.4
2019-02-22T07:32:24.035Z,8.4
2019-02-22T07:33:31.240Z,8.5
2019-02-22T07:34:38.456Z,8.5
2019-02-22T07:35:45.658Z,8.5
2019-02-22T07:36:52.552Z,8.6
2019-02-22T07:37:59.754Z,8.6
2019-02-22T07:39:06.954Z,8.6
2019-02-22T07:40:14.151Z,8.6
2019-02-22T07:41:21.071Z,8.6
2019-02-22T07:42:28.271Z,8.6
2019-02-22T07:43:35.470Z,8.6
2019-02-22T07:44:42.394Z,8.7
2019-02-22T07:45:49.598Z,8.7
2019-02-22T07:46:56.528Z,8.7
2019-02-22T07:48:03.456Z,8.7
2019-02-22T07:49:10.376Z,8.7
2019-02-22T07:50:17.583Z,8.7
2019-02-22T07:51:24.510Z,8.7
2019-02-22T07:52:31.442Z,8.8
2019-02-22T07:53:38.637Z,8.8
2019-02-22T07:54:45.840Z,8.8
2019-02-22T07:55:53.324Z,8.8
2019-02-22T07:57:00.526Z,8.9
2019-02-22T07:58:09.287Z,8.9
2019-02-22T07:59:16.485Z,8.9
2019-02-22T08:00:23.416Z,8.9
2019-02-22T08:01:30.342Z,8.9
2019-02-22T08:02:37.272Z,9
2019-02-22T08:03:44.470Z,9
2019-02-22T08:04:51.670Z,9
2019-02-22T08:05:58.871Z,9
2019-02-22T08:07:06.066Z,9.1
2019-02-22T08:08:13.278Z,9.1
2019-02-22T08:09:20.483Z,9.1
2019-02-22T08:10:27.682Z,9.1
2019-02-22T08:11:34.881Z,9.1
2019-02-22T08:12:42.150Z,9.2
2019-02-22T08:13:49.349Z,9.2
2019-02-22T08:14:56.277Z,9.2
2019-02-22T08:16:03.264Z,9.2
2019-02-22T08:17:10.171Z,9.2
2019-02-22T08:18:17.375Z,9.3
2019-02-22T08:19:24.582Z,9.3
2019-02-22T08:20:31.795Z,9.3
2019-02-22T08:21:39.002Z,9.3
2019-02-22T08:22:46.198Z,9.3
2019-02-22T08:23:53.397Z,9.3
2019-02-22T08:25:00.771Z,9.3
2019-02-22T08:26:07.952Z,9.3
2019-02-22T08:27:15.152Z,9.4
2019-02-22T08:28:22.349Z,9.4
2019-02-22T08:29:29.547Z,9.4
2019-02-22T08:30:36.748Z,9.4
2019-02-22T08:31:43.947Z,9.4
2019-02-22T08:32:51.162Z,9.5
2019-02-22T08:33:58.354Z,9.5
2019-02-22T08:35:05.560Z,9.5
2019-02-22T08:36:12.768Z,9.5
2019-02-22T08:37:19.971Z,9.5
2019-02-22T08:38:27.172Z,9.5
2019-02-22T08:39:34.368Z,9.5
2019-02-22T08:40:41.324Z,9.5
2019-02-22T08:41:48.528Z,9.4
2019-02-22T08:42:55.727Z,9.4
2019-02-22T08:44:02.652Z,9.5
2019-02-22T08:45:10.300Z,9.5
2019-02-22T08:46:17.524Z,9.4
2019-02-22T08:47:24.727Z,9.4
2019-02-22T08:48:31.386Z,9.5
2019-02-22T08:49:38.586Z,9.5
2019-02-22T08:50:45.780Z,9.4
2019-02-22T08:51:52.439Z,9.4
2019-02-22T08:52:59.639Z,9.5
2019-02-22T08:54:06.835Z,9.5
2019-02-22T08:55:13.760Z,9.5
2019-02-22T08:56:20.693Z,9.5
2019-02-22T08:57:27.353Z,9.5
2019-02-22T08:58:34.549Z,9.5
2019-02-22T08:59:41.485Z,9.5
2019-02-22T09:00:48.709Z,9.5
2019-02-22T09:01:55.911Z,9.5
2019-02-22T09:03:03.137Z,9.5
2019-02-22T23:00:06.306Z,0.8
2019-02-22T23:01:13.499Z,0.8
2019-02-22T23:02:20.694Z,0.8
2019-02-22T23:03:27.613Z,0.8
2019-02-22T23:04:34.805Z,1
2019-02-22T23:05:42.002Z,1
2019-02-22T23:06:48.929Z,1
2019-02-22T23:07:56.132Z,1.1
2019-02-22T23:09:03.323Z,1.1
2019-02-22T23:10:10.520Z,1.2
2019-02-22T23:11:17.715Z,1.3
2019-02-22T23:12:24.909Z,1.3
2019-02-22T23:13:31.829Z,1.3
2019-02-22T23:14:39.024Z,1.3
2019-02-22T23:15:46.218Z,1.3
2019-02-22T23:16:53.454Z,1.2
2019-02-22T23:18:00.382Z,1.2
2019-02-22T23:19:07.574Z,1.2
2019-02-22T23:20:14.766Z,1.2
2019-02-22T23:21:21.964Z,1.1
2019-02-22T23:22:29.162Z,1.1
2019-02-22T23:23:36.362Z,1.1
2019-02-22T23:24:43.279Z,1
2019-02-22T23:25:50.472Z,1.1
2019-02-22T23:26:57.668Z,1.1
2019-02-22T23:28:04.862Z,1.1
2019-02-22T23:29:12.106Z,1.1
2019-02-22T23:30:19.009Z,1.1
2019-02-22T23:31:26.202Z,1.1
2019-02-22T23:32:33.392Z,1.1
2019-02-22T23:33:40.588Z,1.1
2019-02-22T23:34:47.514Z,1.1
2019-02-22T23:35:54.718Z,1.1
2019-02-22T23:37:01.633Z,1.1
2019-02-22T23:38:08.905Z,1.1
2019-02-22T23:39:15.829Z,1.1
2019-02-22T23:40:22.753Z,1.1
2019-02-22T23:41:29.950Z,1.1
2019-02-22T23:42:37.157Z,1
2019-02-22T23:43:44.342Z,1
2019-02-22T23:44:51.532Z,0.9
2019-02-22T23:45:58.728Z,1
2019-02-22T23:47:05.921Z,1
2019-02-22T23:48:13.114Z,1
2019-02-22T23:49:20.309Z,1
2019-02-22T23:50:27.500Z,1
2019-02-22T23:51:34.423Z,1
2019-02-22T23:52:41.613Z,1
2019-02-22T23:53:48.809Z,1.1
2019-02-22T23:54:56.022Z,1.1
2019-02-22T23:56:03.245Z,1
2019-02-22T23:57:10.439Z,1
2019-02-22T23:58:17.634Z,1
2019-02-22T23:59:24.840Z,1
